sensor_id;sensor_type;location;lat;lon;timestamp;P1;durP1;ratioP1;P2;durP2;ratioP2
80231;SDS011;70197;42.124;24.752;2023-07-31T00:00:05;4.40;;;3.10;;
80231;SDS011;70197;42.124;24.752;2023-07-31T00:02:31;6.28;;;3.28;;
80231;SDS011;70197;42.124;24.752;2023-07-31T00:04:57;5.28;;;3.28;;
80231;SDS011;70197;42.124;24.752;2023-07-31T00:07:23;5.07;;;3.10;;
80231;SDS011;70197;42.124;24.752;2023-07-31T00:09:48;3.90;;;3.10;;
80231;SDS011;70197;42.124;24.752;2023-07-31T00:12:14;3.63;;;3.08;;
80231;SDS011;70197;42.124;24.752;2023-07-31T00:14:40;6.68;;;3.47;;
80231;SDS011;70197;42.124;24.752;2023-07-31T00:17:05;5.53;;;3.45;;
80231;SDS011;70197;42.124;24.752;2023-07-31T00:19:31;4.22;;;3.20;;
80231;SDS011;70197;42.124;24.752;2023-07-31T00:21:56;4.32;;;3.03;;
80231;SDS011;70197;42.124;24.752;2023-07-31T00:24:22;4.60;;;3.05;;
80231;SDS011;70197;42.124;24.752;2023-07-31T00:26:48;6.45;;;3.03;;
80231;SDS011;70197;42.124;24.752;2023-07-31T00:29:13;5.20;;;3.40;;
80231;SDS011;70197;42.124;24.752;2023-07-31T00:31:39;6.70;;;3.45;;
80231;SDS011;70197;42.124;24.752;2023-07-31T00:34:04;4.72;;;3.70;;
80231;SDS011;70197;42.124;24.752;2023-07-31T00:36:30;4.15;;;3.30;;
80231;SDS011;70197;42.124;24.752;2023-07-31T00:38:56;4.35;;;3.55;;
80231;SDS011;70197;42.124;24.752;2023-07-31T00:41:21;4.50;;;3.90;;
80231;SDS011;70197;42.124;24.752;2023-07-31T00:43:47;5.00;;;3.65;;
80231;SDS011;70197;42.124;24.752;2023-07-31T00:46:13;4.78;;;3.33;;
80231;SDS011;70197;42.124;24.752;2023-07-31T00:48:38;5.65;;;4.05;;
80231;SDS011;70197;42.124;24.752;2023-07-31T00:51:05;4.97;;;3.60;;
80231;SDS011;70197;42.124;24.752;2023-07-31T00:53:31;5.80;;;3.65;;
80231;SDS011;70197;42.124;24.752;2023-07-31T00:55:57;4.65;;;3.85;;
80231;SDS011;70197;42.124;24.752;2023-07-31T00:58:23;7.72;;;4.15;;
80231;SDS011;70197;42.124;24.752;2023-07-31T01:00:49;5.32;;;4.43;;
80231;SDS011;70197;42.124;24.752;2023-07-31T01:03:15;6.18;;;4.50;;
80231;SDS011;70197;42.124;24.752;2023-07-31T01:08:22;5.95;;;5.25;;
80231;SDS011;70197;42.124;24.752;2023-07-31T01:11:14;7.72;;;5.50;;
80231;SDS011;70197;42.124;24.752;2023-07-31T01:13:44;6.90;;;5.45;;
80231;SDS011;70197;42.124;24.752;2023-07-31T01:16:10;8.98;;;5.65;;
80231;SDS011;70197;42.124;24.752;2023-07-31T01:18:36;7.10;;;6.20;;
80231;SDS011;70197;42.124;24.752;2023-07-31T01:21:17;8.23;;;6.78;;
80231;SDS011;70197;42.124;24.752;2023-07-31T01:26:17;8.77;;;7.88;;
80231;SDS011;70197;42.124;24.752;2023-07-31T01:28:49;10.27;;;9.10;;
80231;SDS011;70197;42.124;24.752;2023-07-31T01:31:26;11.68;;;9.48;;
80231;SDS011;70197;42.124;24.752;2023-07-31T01:33:55;11.38;;;10.18;;
80231;SDS011;70197;42.124;24.752;2023-07-31T01:36:23;11.90;;;10.70;;
80231;SDS011;70197;42.124;24.752;2023-07-31T01:38:49;11.95;;;10.45;;
80231;SDS011;70197;42.124;24.752;2023-07-31T01:41:18;12.50;;;11.10;;
80231;SDS011;70197;42.124;24.752;2023-07-31T01:43:44;14.25;;;12.35;;
80231;SDS011;70197;42.124;24.752;2023-07-31T01:46:11;15.05;;;13.45;;
80231;SDS011;70197;42.124;24.752;2023-07-31T01:48:36;14.63;;;13.18;;
80231;SDS011;70197;42.124;24.752;2023-07-31T01:51:02;16.88;;;14.57;;
80231;SDS011;70197;42.124;24.752;2023-07-31T01:53:28;16.65;;;14.68;;
80231;SDS011;70197;42.124;24.752;2023-07-31T01:55:55;17.60;;;14.63;;
80231;SDS011;70197;42.124;24.752;2023-07-31T01:58:21;17.20;;;14.88;;
80231;SDS011;70197;42.124;24.752;2023-07-31T02:00:47;19.05;;;15.65;;
80231;SDS011;70197;42.124;24.752;2023-07-31T02:03:12;17.25;;;15.30;;
80231;SDS011;70197;42.124;24.752;2023-07-31T02:05:47;16.85;;;15.15;;
80231;SDS011;70197;42.124;24.752;2023-07-31T02:08:14;17.45;;;15.00;;
80231;SDS011;70197;42.124;24.752;2023-07-31T02:10:40;19.95;;;15.50;;
80231;SDS011;70197;42.124;24.752;2023-07-31T02:13:06;19.00;;;15.82;;
80231;SDS011;70197;42.124;24.752;2023-07-31T02:15:32;17.20;;;14.65;;
80231;SDS011;70197;42.124;24.752;2023-07-31T02:17:58;18.27;;;15.27;;
80231;SDS011;70197;42.124;24.752;2023-07-31T02:20:23;17.92;;;15.40;;
80231;SDS011;70197;42.124;24.752;2023-07-31T02:22:49;17.75;;;15.85;;
80231;SDS011;70197;42.124;24.752;2023-07-31T02:25:15;17.90;;;15.70;;
80231;SDS011;70197;42.124;24.752;2023-07-31T02:27:40;19.58;;;15.80;;
80231;SDS011;70197;42.124;24.752;2023-07-31T02:30:06;18.60;;;15.35;;
80231;SDS011;70197;42.124;24.752;2023-07-31T02:32:32;17.30;;;15.50;;
80231;SDS011;70197;42.124;24.752;2023-07-31T02:34:58;17.27;;;15.43;;
80231;SDS011;70197;42.124;24.752;2023-07-31T02:37:24;19.65;;;16.27;;
80231;SDS011;70197;42.124;24.752;2023-07-31T02:39:50;18.60;;;15.85;;
80231;SDS011;70197;42.124;24.752;2023-07-31T02:42:15;18.63;;;15.45;;
80231;SDS011;70197;42.124;24.752;2023-07-31T02:44:41;20.00;;;16.08;;
80231;SDS011;70197;42.124;24.752;2023-07-31T02:47:07;18.42;;;15.63;;
80231;SDS011;70197;42.124;24.752;2023-07-31T02:49:32;17.38;;;15.45;;
80231;SDS011;70197;42.124;24.752;2023-07-31T02:51:58;17.35;;;15.60;;
80231;SDS011;70197;42.124;24.752;2023-07-31T02:54:24;19.85;;;16.60;;
80231;SDS011;70197;42.124;24.752;2023-07-31T02:56:49;18.08;;;16.17;;
80231;SDS011;70197;42.124;24.752;2023-07-31T02:59:16;18.30;;;16.40;;
80231;SDS011;70197;42.124;24.752;2023-07-31T03:01:42;19.33;;;15.50;;
80231;SDS011;70197;42.124;24.752;2023-07-31T03:04:07;20.13;;;16.52;;
80231;SDS011;70197;42.124;24.752;2023-07-31T03:06:33;18.02;;;16.13;;
80231;SDS011;70197;42.124;24.752;2023-07-31T03:08:59;17.58;;;15.85;;
80231;SDS011;70197;42.124;24.752;2023-07-31T03:11:24;18.02;;;16.10;;
80231;SDS011;70197;42.124;24.752;2023-07-31T03:13:50;18.42;;;15.38;;
80231;SDS011;70197;42.124;24.752;2023-07-31T03:16:16;18.55;;;15.77;;
80231;SDS011;70197;42.124;24.752;2023-07-31T03:18:41;17.67;;;15.77;;
80231;SDS011;70197;42.124;24.752;2023-07-31T03:21:07;18.20;;;16.15;;
80231;SDS011;70197;42.124;24.752;2023-07-31T03:23:33;18.20;;;16.27;;
80231;SDS011;70197;42.124;24.752;2023-07-31T03:26:01;17.77;;;15.98;;
80231;SDS011;70197;42.124;24.752;2023-07-31T03:28:28;20.60;;;16.35;;
80231;SDS011;70197;42.124;24.752;2023-07-31T03:30:54;17.00;;;15.20;;
80231;SDS011;70197;42.124;24.752;2023-07-31T03:33:20;18.20;;;16.30;;
80231;SDS011;70197;42.124;24.752;2023-07-31T03:35:46;18.20;;;16.05;;
80231;SDS011;70197;42.124;24.752;2023-07-31T03:38:11;18.52;;;16.05;;
80231;SDS011;70197;42.124;24.752;2023-07-31T03:40:37;22.30;;;17.63;;
80231;SDS011;70197;42.124;24.752;2023-07-31T03:43:03;19.95;;;17.77;;
80231;SDS011;70197;42.124;24.752;2023-07-31T03:45:28;20.40;;;18.30;;
80231;SDS011;70197;42.124;24.752;2023-07-31T03:47:54;20.95;;;18.30;;
80231;SDS011;70197;42.124;24.752;2023-07-31T03:50:20;22.23;;;19.00;;
80231;SDS011;70197;42.124;24.752;2023-07-31T03:52:47;23.40;;;18.45;;
80231;SDS011;70197;42.124;24.752;2023-07-31T03:55:12;20.27;;;17.63;;
80231;SDS011;70197;42.124;24.752;2023-07-31T03:57:38;24.67;;;18.95;;
80231;SDS011;70197;42.124;24.752;2023-07-31T04:00:04;20.50;;;18.30;;
80231;SDS011;70197;42.124;24.752;2023-07-31T04:02:30;23.80;;;18.55;;
80231;SDS011;70197;42.124;24.752;2023-07-31T04:04:55;22.30;;;18.67;;
80231;SDS011;70197;42.124;24.752;2023-07-31T04:07:21;20.85;;;17.85;;
80231;SDS011;70197;42.124;24.752;2023-07-31T04:09:46;29.50;;;19.02;;
80231;SDS011;70197;42.124;24.752;2023-07-31T04:12:12;22.05;;;18.10;;
80231;SDS011;70197;42.124;24.752;2023-07-31T04:14:38;24.98;;;18.20;;
80231;SDS011;70197;42.124;24.752;2023-07-31T04:17:03;24.63;;;18.75;;
80231;SDS011;70197;42.124;24.752;2023-07-31T04:19:29;26.23;;;18.80;;
80231;SDS011;70197;42.124;24.752;2023-07-31T04:21:55;24.65;;;18.92;;
80231;SDS011;70197;42.124;24.752;2023-07-31T04:24:20;22.58;;;18.90;;
80231;SDS011;70197;42.124;24.752;2023-07-31T04:26:52;23.80;;;18.77;;
80231;SDS011;70197;42.124;24.752;2023-07-31T04:29:18;23.42;;;19.23;;
80231;SDS011;70197;42.124;24.752;2023-07-31T04:31:44;29.88;;;19.17;;
80231;SDS011;70197;42.124;24.752;2023-07-31T04:34:10;30.70;;;18.85;;
80231;SDS011;70197;42.124;24.752;2023-07-31T04:36:36;27.58;;;19.38;;
80231;SDS011;70197;42.124;24.752;2023-07-31T04:39:02;22.95;;;18.35;;
80231;SDS011;70197;42.124;24.752;2023-07-31T04:41:28;26.45;;;18.67;;
80231;SDS011;70197;42.124;24.752;2023-07-31T04:43:53;22.40;;;18.38;;
80231;SDS011;70197;42.124;24.752;2023-07-31T04:46:19;21.52;;;17.27;;
80231;SDS011;70197;42.124;24.752;2023-07-31T04:48:44;27.02;;;16.73;;
80231;SDS011;70197;42.124;24.752;2023-07-31T04:51:10;22.35;;;15.27;;
80231;SDS011;70197;42.124;24.752;2023-07-31T04:53:36;24.85;;;15.85;;
80231;SDS011;70197;42.124;24.752;2023-07-31T04:56:02;19.92;;;14.73;;
80231;SDS011;70197;42.124;24.752;2023-07-31T04:58:27;21.75;;;15.68;;
80231;SDS011;70197;42.124;24.752;2023-07-31T05:00:53;18.60;;;14.95;;
80231;SDS011;70197;42.124;24.752;2023-07-31T05:03:19;19.92;;;14.93;;
80231;SDS011;70197;42.124;24.752;2023-07-31T05:05:44;18.35;;;14.65;;
80231;SDS011;70197;42.124;24.752;2023-07-31T05:08:10;33.63;;;15.85;;
80231;SDS011;70197;42.124;24.752;2023-07-31T05:10:36;33.95;;;14.55;;
80231;SDS011;70197;42.124;24.752;2023-07-31T05:13:01;22.85;;;15.00;;
80231;SDS011;70197;42.124;24.752;2023-07-31T05:15:27;18.52;;;13.25;;
80231;SDS011;70197;42.124;24.752;2023-07-31T05:17:53;19.67;;;13.02;;
80231;SDS011;70197;42.124;24.752;2023-07-31T05:20:19;23.95;;;14.43;;
80231;SDS011;70197;42.124;24.752;2023-07-31T05:22:44;15.27;;;12.82;;
80231;SDS011;70197;42.124;24.752;2023-07-31T05:25:10;20.98;;;12.57;;
80231;SDS011;70197;42.124;24.752;2023-07-31T05:27:36;21.25;;;12.45;;
80231;SDS011;70197;42.124;24.752;2023-07-31T05:30:01;20.67;;;12.27;;
80231;SDS011;70197;42.124;24.752;2023-07-31T05:32:27;19.20;;;12.20;;
80231;SDS011;70197;42.124;24.752;2023-07-31T05:34:53;16.38;;;11.27;;
80231;SDS011;70197;42.124;24.752;2023-07-31T05:37:19;21.80;;;11.15;;
80231;SDS011;70197;42.124;24.752;2023-07-31T05:39:45;27.17;;;10.95;;
80231;SDS011;70197;42.124;24.752;2023-07-31T05:42:10;17.67;;;10.82;;
80231;SDS011;70197;42.124;24.752;2023-07-31T05:44:36;13.23;;;9.70;;
80231;SDS011;70197;42.124;24.752;2023-07-31T05:47:02;15.80;;;8.82;;
80231;SDS011;70197;42.124;24.752;2023-07-31T05:49:28;25.92;;;9.43;;
80231;SDS011;70197;42.124;24.752;2023-07-31T05:51:53;21.27;;;9.10;;
80231;SDS011;70197;42.124;24.752;2023-07-31T05:54:19;17.67;;;11.25;;
80231;SDS011;70197;42.124;24.752;2023-07-31T05:56:44;18.85;;;7.38;;
80231;SDS011;70197;42.124;24.752;2023-07-31T05:59:12;41.67;;;24.80;;
80231;SDS011;70197;42.124;24.752;2023-07-31T06:01:38;14.65;;;6.97;;
80231;SDS011;70197;42.124;24.752;2023-07-31T06:04:04;11.43;;;7.78;;
80231;SDS011;70197;42.124;24.752;2023-07-31T06:06:30;16.25;;;7.38;;
80231;SDS011;70197;42.124;24.752;2023-07-31T06:08:55;14.43;;;6.85;;
80231;SDS011;70197;42.124;24.752;2023-07-31T06:11:21;14.40;;;6.50;;
80231;SDS011;70197;42.124;24.752;2023-07-31T06:13:47;15.07;;;6.90;;
80231;SDS011;70197;42.124;24.752;2023-07-31T06:16:14;17.25;;;6.65;;
80231;SDS011;70197;42.124;24.752;2023-07-31T06:18:40;10.27;;;6.72;;
80231;SDS011;70197;42.124;24.752;2023-07-31T06:21:06;11.95;;;6.65;;
80231;SDS011;70197;42.124;24.752;2023-07-31T06:23:32;11.43;;;5.90;;
80231;SDS011;70197;42.124;24.752;2023-07-31T06:25:58;11.02;;;5.78;;
80231;SDS011;70197;42.124;24.752;2023-07-31T06:28:30;8.98;;;5.82;;
80231;SDS011;70197;42.124;24.752;2023-07-31T06:30:59;6.13;;;4.60;;
80231;SDS011;70197;42.124;24.752;2023-07-31T06:33:25;6.68;;;4.50;;
80231;SDS011;70197;42.124;24.752;2023-07-31T06:35:52;8.55;;;4.07;;
80231;SDS011;70197;42.124;24.752;2023-07-31T06:38:25;9.38;;;4.18;;
80231;SDS011;70197;42.124;24.752;2023-07-31T06:40:51;10.70;;;4.13;;
80231;SDS011;70197;42.124;24.752;2023-07-31T06:43:17;7.57;;;3.92;;
80231;SDS011;70197;42.124;24.752;2023-07-31T06:45:43;4.88;;;3.63;;
80231;SDS011;70197;42.124;24.752;2023-07-31T06:48:09;11.27;;;4.00;;
80231;SDS011;70197;42.124;24.752;2023-07-31T06:50:34;15.13;;;4.88;;
80231;SDS011;70197;42.124;24.752;2023-07-31T06:53:00;20.92;;;4.70;;
80231;SDS011;70197;42.124;24.752;2023-07-31T06:55:26;11.93;;;4.28;;
80231;SDS011;70197;42.124;24.752;2023-07-31T06:57:53;8.00;;;3.90;;
80231;SDS011;70197;42.124;24.752;2023-07-31T07:00:20;14.00;;;4.10;;
80231;SDS011;70197;42.124;24.752;2023-07-31T07:02:47;20.55;;;4.15;;
80231;SDS011;70197;42.124;24.752;2023-07-31T07:05:13;6.65;;;3.63;;
80231;SDS011;70197;42.124;24.752;2023-07-31T07:07:39;7.90;;;3.75;;
80231;SDS011;70197;42.124;24.752;2023-07-31T07:10:06;6.55;;;3.75;;
80231;SDS011;70197;42.124;24.752;2023-07-31T07:12:32;9.23;;;3.70;;
80231;SDS011;70197;42.124;24.752;2023-07-31T07:14:58;8.32;;;4.13;;
80231;SDS011;70197;42.124;24.752;2023-07-31T07:17:25;12.98;;;4.80;;
80231;SDS011;70197;42.124;24.752;2023-07-31T07:19:53;6.70;;;4.03;;
80231;SDS011;70197;42.124;24.752;2023-07-31T07:22:20;9.80;;;3.53;;
80231;SDS011;70197;42.124;24.752;2023-07-31T07:24:45;13.85;;;3.85;;
80231;SDS011;70197;42.124;24.752;2023-07-31T07:27:11;9.65;;;3.70;;
80231;SDS011;70197;42.124;24.752;2023-07-31T07:29:37;5.97;;;3.33;;
80231;SDS011;70197;42.124;24.752;2023-07-31T07:32:49;10.20;;;3.17;;
80231;SDS011;70197;42.124;24.752;2023-07-31T07:35:15;4.72;;;3.20;;
80231;SDS011;70197;42.124;24.752;2023-07-31T07:37:41;11.85;;;3.53;;
80231;SDS011;70197;42.124;24.752;2023-07-31T07:40:06;21.50;;;3.95;;
80231;SDS011;70197;42.124;24.752;2023-07-31T07:42:32;8.02;;;3.38;;
80231;SDS011;70197;42.124;24.752;2023-07-31T07:44:58;55.15;;;5.60;;
80231;SDS011;70197;42.124;24.752;2023-07-31T07:47:24;28.50;;;5.05;;
80231;SDS011;70197;42.124;24.752;2023-07-31T07:49:49;12.68;;;3.75;;
80231;SDS011;70197;42.124;24.752;2023-07-31T07:52:15;9.88;;;3.30;;
80231;SDS011;70197;42.124;24.752;2023-07-31T07:54:40;4.60;;;3.53;;
80231;SDS011;70197;42.124;24.752;2023-07-31T07:57:06;9.02;;;3.15;;
80231;SDS011;70197;42.124;24.752;2023-07-31T07:59:31;24.38;;;3.58;;
80231;SDS011;70197;42.124;24.752;2023-07-31T08:01:57;11.57;;;3.88;;
80231;SDS011;70197;42.124;24.752;2023-07-31T08:04:23;19.58;;;3.75;;
80231;SDS011;70197;42.124;24.752;2023-07-31T08:06:48;14.65;;;3.53;;
80231;SDS011;70197;42.124;24.752;2023-07-31T08:09:14;16.25;;;3.80;;
80231;SDS011;70197;42.124;24.752;2023-07-31T08:11:40;16.13;;;3.50;;
80231;SDS011;70197;42.124;24.752;2023-07-31T08:14:05;30.67;;;3.58;;
80231;SDS011;70197;42.124;24.752;2023-07-31T08:16:31;28.85;;;4.43;;
80231;SDS011;70197;42.124;24.752;2023-07-31T08:18:57;33.30;;;4.15;;
80231;SDS011;70197;42.124;24.752;2023-07-31T08:21:22;16.42;;;4.15;;
80231;SDS011;70197;42.124;24.752;2023-07-31T08:23:48;7.03;;;3.05;;
80231;SDS011;70197;42.124;24.752;2023-07-31T08:26:17;11.73;;;2.75;;
80231;SDS011;70197;42.124;24.752;2023-07-31T08:28:43;12.93;;;3.30;;
80231;SDS011;70197;42.124;24.752;2023-07-31T08:31:09;13.95;;;3.22;;
80231;SDS011;70197;42.124;24.752;2023-07-31T08:33:36;15.57;;;3.20;;
80231;SDS011;70197;42.124;24.752;2023-07-31T08:36:02;12.50;;;2.95;;
80231;SDS011;70197;42.124;24.752;2023-07-31T08:38:27;9.75;;;2.80;;
80231;SDS011;70197;42.124;24.752;2023-07-31T08:40:54;13.10;;;3.30;;
80231;SDS011;70197;42.124;24.752;2023-07-31T08:43:21;29.10;;;4.88;;
80231;SDS011;70197;42.124;24.752;2023-07-31T08:45:50;29.90;;;4.03;;
80231;SDS011;70197;42.124;24.752;2023-07-31T08:48:16;16.67;;;3.10;;
80231;SDS011;70197;42.124;24.752;2023-07-31T08:50:43;16.50;;;3.35;;
80231;SDS011;70197;42.124;24.752;2023-07-31T08:53:08;14.07;;;4.18;;
80231;SDS011;70197;42.124;24.752;2023-07-31T08:55:35;10.52;;;2.78;;
80231;SDS011;70197;42.124;24.752;2023-07-31T08:58:03;9.20;;;2.50;;
80231;SDS011;70197;42.124;24.752;2023-07-31T09:00:30;6.55;;;2.42;;
80231;SDS011;70197;42.124;24.752;2023-07-31T09:03:05;10.45;;;2.40;;
80231;SDS011;70197;42.124;24.752;2023-07-31T09:05:33;10.48;;;2.47;;
80231;SDS011;70197;42.124;24.752;2023-07-31T09:08:00;5.82;;;2.50;;
80231;SDS011;70197;42.124;24.752;2023-07-31T09:10:29;6.88;;;2.15;;
80231;SDS011;70197;42.124;24.752;2023-07-31T09:12:55;4.70;;;2.22;;
80231;SDS011;70197;42.124;24.752;2023-07-31T09:15:21;6.47;;;2.33;;
80231;SDS011;70197;42.124;24.752;2023-07-31T09:17:48;7.40;;;2.50;;
80231;SDS011;70197;42.124;24.752;2023-07-31T09:20:28;10.32;;;2.30;;
80231;SDS011;70197;42.124;24.752;2023-07-31T09:22:54;10.45;;;2.42;;
80231;SDS011;70197;42.124;24.752;2023-07-31T09:25:22;14.25;;;2.80;;
80231;SDS011;70197;42.124;24.752;2023-07-31T09:27:58;10.32;;;3.20;;
80231;SDS011;70197;42.124;24.752;2023-07-31T09:30:25;15.70;;;2.78;;
80231;SDS011;70197;42.124;24.752;2023-07-31T09:33:00;12.88;;;2.65;;
80231;SDS011;70197;42.124;24.752;2023-07-31T09:35:29;16.60;;;3.00;;
80231;SDS011;70197;42.124;24.752;2023-07-31T09:37:58;9.10;;;2.97;;
80231;SDS011;70197;42.124;24.752;2023-07-31T09:40:40;9.65;;;2.80;;
80231;SDS011;70197;42.124;24.752;2023-07-31T09:43:08;15.50;;;2.90;;
80231;SDS011;70197;42.124;24.752;2023-07-31T09:45:36;9.15;;;2.88;;
80231;SDS011;70197;42.124;24.752;2023-07-31T09:48:03;10.43;;;3.55;;
80231;SDS011;70197;42.124;24.752;2023-07-31T09:50:34;12.00;;;3.17;;
80231;SDS011;70197;42.124;24.752;2023-07-31T09:55:32;16.25;;;3.00;;
80231;SDS011;70197;42.124;24.752;2023-07-31T09:57:58;17.77;;;3.35;;
80231;SDS011;70197;42.124;24.752;2023-07-31T10:00:24;11.27;;;3.17;;
80231;SDS011;70197;42.124;24.752;2023-07-31T10:02:53;11.73;;;2.90;;
80231;SDS011;70197;42.124;24.752;2023-07-31T10:05:19;48.65;;;6.57;;
80231;SDS011;70197;42.124;24.752;2023-07-31T10:07:51;21.77;;;3.58;;
80231;SDS011;70197;42.124;24.752;2023-07-31T10:10:19;13.60;;;2.78;;
80231;SDS011;70197;42.124;24.752;2023-07-31T10:12:46;9.38;;;3.10;;
80231;SDS011;70197;42.124;24.752;2023-07-31T10:15:14;16.60;;;3.35;;
80231;SDS011;70197;42.124;24.752;2023-07-31T10:17:40;12.02;;;3.72;;
80231;SDS011;70197;42.124;24.752;2023-07-31T10:20:07;10.60;;;3.80;;
80231;SDS011;70197;42.124;24.752;2023-07-31T10:22:33;12.20;;;3.72;;
80231;SDS011;70197;42.124;24.752;2023-07-31T10:24:59;16.17;;;3.75;;
80231;SDS011;70197;42.124;24.752;2023-07-31T10:27:25;7.10;;;2.85;;
80231;SDS011;70197;42.124;24.752;2023-07-31T10:29:52;8.60;;;3.00;;
80231;SDS011;70197;42.124;24.752;2023-07-31T10:32:20;24.55;;;3.85;;
80231;SDS011;70197;42.124;24.752;2023-07-31T10:34:46;11.68;;;3.05;;
80231;SDS011;70197;42.124;24.752;2023-07-31T10:37:29;8.65;;;3.10;;
80231;SDS011;70197;42.124;24.752;2023-07-31T10:42:36;20.88;;;3.00;;
80231;SDS011;70197;42.124;24.752;2023-07-31T10:45:05;9.32;;;3.00;;
80231;SDS011;70197;42.124;24.752;2023-07-31T10:50:11;8.65;;;2.80;;
80231;SDS011;70197;42.124;24.752;2023-07-31T10:52:37;8.90;;;2.70;;
80231;SDS011;70197;42.124;24.752;2023-07-31T10:55:13;7.30;;;2.42;;
80231;SDS011;70197;42.124;24.752;2023-07-31T10:58:07;19.48;;;3.15;;
80231;SDS011;70197;42.124;24.752;2023-07-31T11:00:37;4.97;;;2.40;;
80231;SDS011;70197;42.124;24.752;2023-07-31T11:03:08;9.93;;;2.85;;
80231;SDS011;70197;42.124;24.752;2023-07-31T11:08:31;6.18;;;2.60;;
80231;SDS011;70197;42.124;24.752;2023-07-31T11:13:30;15.25;;;3.10;;
80231;SDS011;70197;42.124;24.752;2023-07-31T11:15:57;5.40;;;2.60;;
80231;SDS011;70197;42.124;24.752;2023-07-31T11:18:23;15.75;;;2.80;;
80231;SDS011;70197;42.124;24.752;2023-07-31T11:20:50;6.05;;;2.88;;
80231;SDS011;70197;42.124;24.752;2023-07-31T11:23:16;16.75;;;3.30;;
80231;SDS011;70197;42.124;24.752;2023-07-31T11:25:42;13.80;;;2.88;;
80231;SDS011;70197;42.124;24.752;2023-07-31T11:28:09;20.98;;;3.00;;
80231;SDS011;70197;42.124;24.752;2023-07-31T11:30:36;6.00;;;2.42;;
80231;SDS011;70197;42.124;24.752;2023-07-31T11:33:04;21.73;;;3.30;;
80231;SDS011;70197;42.124;24.752;2023-07-31T11:35:31;13.55;;;3.17;;
80231;SDS011;70197;42.124;24.752;2023-07-31T11:37:58;3.72;;;2.50;;
80231;SDS011;70197;42.124;24.752;2023-07-31T11:40:24;30.42;;;3.13;;
80231;SDS011;70197;42.124;24.752;2023-07-31T11:42:56;8.37;;;2.80;;
80231;SDS011;70197;42.124;24.752;2023-07-31T11:45:24;3.75;;;2.35;;
80231;SDS011;70197;42.124;24.752;2023-07-31T11:47:51;10.90;;;2.72;;
80231;SDS011;70197;42.124;24.752;2023-07-31T11:50:18;24.85;;;3.08;;
80231;SDS011;70197;42.124;24.752;2023-07-31T11:52:44;26.55;;;3.50;;
80231;SDS011;70197;42.124;24.752;2023-07-31T11:55:11;10.48;;;3.03;;
80231;SDS011;70197;42.124;24.752;2023-07-31T11:57:38;69.63;;;4.80;;
80231;SDS011;70197;42.124;24.752;2023-07-31T12:00:06;10.57;;;3.38;;
80231;SDS011;70197;42.124;24.752;2023-07-31T12:02:34;14.15;;;3.20;;
80231;SDS011;70197;42.124;24.752;2023-07-31T12:05:00;6.75;;;3.17;;
80231;SDS011;70197;42.124;24.752;2023-07-31T12:07:27;13.45;;;3.65;;
80231;SDS011;70197;42.124;24.752;2023-07-31T12:09:55;8.48;;;3.05;;
80231;SDS011;70197;42.124;24.752;2023-07-31T12:12:21;7.93;;;3.10;;
80231;SDS011;70197;42.124;24.752;2023-07-31T12:14:48;10.77;;;3.65;;
80231;SDS011;70197;42.124;24.752;2023-07-31T12:17:15;12.93;;;3.92;;
80231;SDS011;70197;42.124;24.752;2023-07-31T12:19:42;29.85;;;4.43;;
80231;SDS011;70197;42.124;24.752;2023-07-31T12:22:11;25.23;;;4.05;;
80231;SDS011;70197;42.124;24.752;2023-07-31T12:24:39;12.65;;;4.25;;
80231;SDS011;70197;42.124;24.752;2023-07-31T12:27:09;10.55;;;3.33;;
80231;SDS011;70197;42.124;24.752;2023-07-31T12:29:36;12.15;;;3.83;;
80231;SDS011;70197;42.124;24.752;2023-07-31T12:32:01;23.27;;;5.40;;
80231;SDS011;70197;42.124;24.752;2023-07-31T12:34:28;38.00;;;7.18;;
80231;SDS011;70197;42.124;24.752;2023-07-31T12:36:53;15.48;;;5.70;;
80231;SDS011;70197;42.124;24.752;2023-07-31T12:39:19;23.10;;;6.30;;
80231;SDS011;70197;42.124;24.752;2023-07-31T12:41:45;11.90;;;4.93;;
80231;SDS011;70197;42.124;24.752;2023-07-31T12:44:11;23.33;;;6.38;;
80231;SDS011;70197;42.124;24.752;2023-07-31T12:46:36;39.00;;;6.25;;
80231;SDS011;70197;42.124;24.752;2023-07-31T12:49:02;19.00;;;5.80;;
80231;SDS011;70197;42.124;24.752;2023-07-31T12:51:28;14.15;;;5.20;;
80231;SDS011;70197;42.124;24.752;2023-07-31T12:53:53;13.43;;;5.22;;
80231;SDS011;70197;42.124;24.752;2023-07-31T12:56:19;17.13;;;5.88;;
80231;SDS011;70197;42.124;24.752;2023-07-31T12:58:45;14.32;;;4.90;;
80231;SDS011;70197;42.124;24.752;2023-07-31T13:01:10;14.65;;;4.38;;
80231;SDS011;70197;42.124;24.752;2023-07-31T13:03:36;9.82;;;4.72;;
80231;SDS011;70197;42.124;24.752;2023-07-31T13:06:02;19.67;;;5.45;;
80231;SDS011;70197;42.124;24.752;2023-07-31T13:08:28;20.23;;;5.13;;
80231;SDS011;70197;42.124;24.752;2023-07-31T13:10:54;19.25;;;4.93;;
80231;SDS011;70197;42.124;24.752;2023-07-31T13:13:19;26.50;;;5.53;;
80231;SDS011;70197;42.124;24.752;2023-07-31T13:15:46;14.88;;;4.70;;
80231;SDS011;70197;42.124;24.752;2023-07-31T13:18:11;21.17;;;5.15;;
80231;SDS011;70197;42.124;24.752;2023-07-31T13:20:37;15.50;;;5.07;;
80231;SDS011;70197;42.124;24.752;2023-07-31T13:23:03;10.48;;;4.93;;
80231;SDS011;70197;42.124;24.752;2023-07-31T13:25:28;10.18;;;5.25;;
80231;SDS011;70197;42.124;24.752;2023-07-31T13:27:54;30.00;;;5.45;;
80231;SDS011;70197;42.124;24.752;2023-07-31T13:30:20;18.30;;;5.15;;
80231;SDS011;70197;42.124;24.752;2023-07-31T13:32:45;13.60;;;4.93;;
80231;SDS011;70197;42.124;24.752;2023-07-31T13:35:11;18.95;;;5.30;;
80231;SDS011;70197;42.124;24.752;2023-07-31T13:37:37;18.55;;;5.28;;
80231;SDS011;70197;42.124;24.752;2023-07-31T13:40:03;14.18;;;5.10;;
80231;SDS011;70197;42.124;24.752;2023-07-31T13:42:30;58.20;;;5.35;;
80231;SDS011;70197;42.124;24.752;2023-07-31T13:44:56;37.92;;;4.85;;
80231;SDS011;70197;42.124;24.752;2023-07-31T13:47:21;13.30;;;3.78;;
80231;SDS011;70197;42.124;24.752;2023-07-31T13:49:47;8.45;;;4.43;;
80231;SDS011;70197;42.124;24.752;2023-07-31T13:52:13;16.05;;;4.90;;
80231;SDS011;70197;42.124;24.752;2023-07-31T13:54:38;9.52;;;4.32;;
80231;SDS011;70197;42.124;24.752;2023-07-31T13:57:04;12.95;;;3.92;;
80231;SDS011;70197;42.124;24.752;2023-07-31T13:59:30;9.10;;;4.18;;
80231;SDS011;70197;42.124;24.752;2023-07-31T14:01:56;10.80;;;3.97;;
80231;SDS011;70197;42.124;24.752;2023-07-31T14:04:24;9.45;;;4.20;;
80231;SDS011;70197;42.124;24.752;2023-07-31T14:06:50;24.67;;;6.82;;
80231;SDS011;70197;42.124;24.752;2023-07-31T14:09:15;36.20;;;7.43;;
80231;SDS011;70197;42.124;24.752;2023-07-31T14:11:42;12.20;;;4.00;;
80231;SDS011;70197;42.124;24.752;2023-07-31T14:14:11;8.48;;;4.47;;
80231;SDS011;70197;42.124;24.752;2023-07-31T14:16:37;12.93;;;4.35;;
80231;SDS011;70197;42.124;24.752;2023-07-31T14:19:03;12.30;;;4.40;;
80231;SDS011;70197;42.124;24.752;2023-07-31T14:21:29;13.55;;;4.95;;
80231;SDS011;70197;42.124;24.752;2023-07-31T14:23:54;17.08;;;5.35;;
80231;SDS011;70197;42.124;24.752;2023-07-31T14:26:20;11.45;;;4.13;;
80231;SDS011;70197;42.124;24.752;2023-07-31T14:28:45;19.75;;;6.45;;
80231;SDS011;70197;42.124;24.752;2023-07-31T14:31:11;10.75;;;4.30;;
80231;SDS011;70197;42.124;24.752;2023-07-31T14:33:37;7.13;;;3.70;;
80231;SDS011;70197;42.124;24.752;2023-07-31T14:36:03;11.85;;;4.85;;